createdAt,value
2023-03-02T00:01:23.186Z,98069.16
2023-03-02T00:11:26.120Z,98068.00
2023-03-02T00:21:28.386Z,98064.84
2023-03-02T00:31:30.769Z,98058.97
2023-03-02T00:41:33.112Z,98054.44
2023-03-02T00:51:35.555Z,98051.97
2023-03-02T01:01:38.252Z,98048.41
2023-03-02T01:11:40.535Z,98033.00
2023-03-02T01:21:43.300Z,98010.13
2023-03-02T01:31:45.754Z,97997.97
2023-03-02T06:05:12.143Z,97926.88
2023-03-02T06:15:14.374Z,97920.25
2023-03-02T06:25:20.768Z,97921.81
2023-03-02T06:35:24.227Z,97920.41
2023-03-02T06:45:28.081Z,97932.38
2023-03-02T06:55:30.581Z,97936.38
2023-03-02T07:05:32.895Z,97933.88
2023-03-02T07:15:35.258Z,97926.72
2023-03-02T07:25:37.575Z,97919.81
2023-03-02T07:35:39.771Z,97912.69
2023-03-02T07:45:41.979Z,97906.66
2023-03-02T07:55:44.192Z,97904.06
2023-03-02T08:05:46.415Z,97896.81
2023-03-02T08:15:48.668Z,97901.84
2023-03-02T08:25:52.969Z,97891.41
2023-03-02T08:36:00.016Z,97897.44
2023-03-02T08:46:02.651Z,97896.47
2023-03-02T08:56:07.578Z,97889.00
2023-03-02T09:06:09.969Z,97887.84
2023-03-02T09:16:13.162Z,97883.44
2023-03-02T09:26:15.494Z,97878.53
2023-03-02T09:36:23.282Z,97868.22
2023-03-02T09:46:46.855Z,97868.47
2023-03-02T09:56:52.832Z,97863.34
2023-03-02T10:07:10.716Z,97863.88
2023-03-02T10:17:21.954Z,97858.84
2023-03-02T10:27:36.732Z,97839.00
2023-03-02T10:37:38.941Z,97824.13
2023-03-02T10:47:41.200Z,97831.16
2023-03-02T10:57:56.947Z,97820.53
2023-03-02T11:08:11.410Z,97803.22
2023-03-02T11:18:34.928Z,97790.91
2023-03-02T11:28:54.262Z,97777.84
2023-03-02T11:38:56.666Z,97769.22
2023-03-02T11:49:14.137Z,97758.56
2023-03-02T11:59:20.291Z,97744.19
2023-03-02T12:09:22.554Z,97738.19
2023-03-02T12:19:39.026Z,97718.22
2023-03-02T12:29:57.259Z,97704.13
2023-03-02T12:40:03.289Z,97691.59
2023-03-02T12:50:16.578Z,97684.91
2023-03-02T13:00:21.719Z,97659.66
2023-03-02T13:10:33.164Z,97661.69
2023-03-02T13:20:35.411Z,97646.22
2023-03-02T13:30:43.652Z,97637.63
2023-03-02T13:40:49.522Z,97624.81
2023-03-02T13:50:58.576Z,97617.13
2023-03-02T14:01:00.912Z,97612.25
2023-03-02T14:11:05.420Z,97619.16
2023-03-02T14:21:25.697Z,97604.38
2023-03-02T14:31:28.086Z,97597.28
2023-03-02T14:41:31.547Z,97593.03
2023-03-02T14:51:35.721Z,97584.63
2023-03-02T15:01:38.093Z,97590.91
2023-03-02T15:11:40.372Z,97593.97
2023-03-02T15:21:44.980Z,97583.75
2023-03-02T15:31:47.648Z,97571.06
2023-03-02T15:41:49.903Z,97590.91
2023-03-02T15:51:53.053Z,97573.91
2023-03-02T16:02:02.565Z,97577.13
2023-03-02T16:12:05.077Z,97578.31
2023-03-02T16:22:07.317Z,97584.06
2023-03-02T16:32:09.745Z,97594.25
2023-03-02T16:42:12.291Z,97601.38
2023-03-02T16:52:14.485Z,97605.59
2023-03-02T17:02:16.788Z,97622.00
2023-03-02T17:12:19.112Z,97624.69
2023-03-02T17:22:21.358Z,97636.38
2023-03-02T17:32:24.561Z,97648.84
2023-03-02T17:42:27.333Z,97667.00
2023-03-02T17:52:30.154Z,97673.56
2023-03-02T18:02:33.540Z,97667.91
2023-03-02T18:12:36.230Z,97662.19
2023-03-02T18:22:38.633Z,97666.88
2023-03-02T18:32:41.011Z,97661.13
2023-03-02T18:42:43.324Z,97656.81
2023-03-02T18:52:46.367Z,97647.81
2023-03-02T19:02:49.262Z,97654.25
2023-03-02T19:12:51.624Z,97670.09
2023-03-02T19:22:58.814Z,97677.88
2023-03-02T19:33:02.000Z,97677.06
2023-03-02T19:43:04.857Z,97676.16
2023-03-02T19:53:07.481Z,97674.47
2023-03-02T20:03:10.098Z,97680.94
2023-03-02T20:13:12.735Z,97678.03
2023-03-02T20:23:16.042Z,97683.47
2023-03-02T20:33:21.248Z,97672.03
2023-03-02T20:43:23.756Z,97675.59
2023-03-02T20:53:26.514Z,97679.09
2023-03-02T21:03:28.694Z,97678.34
2023-03-02T21:13:30.890Z,97677.91
2023-03-02T21:23:33.085Z,97663.38
2023-03-02T21:40:16.792Z,97651.13
2023-03-02T21:50:23.267Z,97653.44
2023-03-02T22:00:34.455Z,97635.94
2023-03-02T22:10:45.307Z,97639.09
2023-03-02T22:20:50.430Z,97644.56
2023-03-02T22:30:58.216Z,97644.25
2023-03-02T22:41:00.524Z,97635.16
2023-03-02T22:51:30.077Z,97634.34
2023-03-02T23:01:42.294Z,97627.25
2023-03-02T23:11:45.348Z,97629.38
2023-03-02T23:21:49.538Z,97609.50
2023-03-02T23:31:52.010Z,97613.00
2023-03-02T23:41:54.396Z,97608.53
2023-03-02T23:51:56.653Z,97604.91
